Terminal Aerodrome Forecast
Issued by NWS Spokane, WA

Home | Current Version | Previous Version | Text Only | Print | Product List | Glossary On
Versions: 1 2 3 4 5 6 7 8 9 10 11 12 13 14 15 16 17 18 19 20 21 22 23 24 25 26 27 28 29 30 31
000
FTUS46 KOTX 020058 AAA
TAFEAT
TAF AMD
KEAT 020058Z 0201/0224 31015KT P6SM VCTS SCT060CB BKN100
     FM020300 29015G23KT P6SM -TSRA SCT050 BKN080CB
     FM020500 30012KT P6SM VCSH BKN080 BKN120
     FM020800 31010KT P6SM SCT070 BKN150
     FM021500 31015KT P6SM SCT070 BKN150=

USA.gov is the U.S. government's official web portal to all federal, state and local government web resources and services.